createdAt,value
2022-11-17T00:02:16.113Z,98774.43
2022-11-17T00:04:44.897Z,98768.67
2022-11-17T00:07:12.628Z,98763.95
2022-11-17T00:09:41.832Z,98765.96
2022-11-17T00:12:32.564Z,98765.77
2022-11-17T00:15:00.662Z,98765.57
2022-11-17T00:17:28.394Z,98761.37
2022-11-17T00:20:14.076Z,98755.48
2022-11-17T00:22:41.120Z,98758.84
2022-11-17T00:25:08.467Z,98755.70
2022-11-17T00:27:36.187Z,98752.77
2022-11-17T00:30:04.674Z,98752.95
2022-11-17T00:32:51.234Z,98750.16
2022-11-17T00:35:18.460Z,98754.99
2022-11-17T00:38:11.134Z,98749.60
2022-11-17T00:40:38.375Z,98749.71
2022-11-17T00:43:05.493Z,98749.52
2022-11-17T00:45:32.778Z,98746.66
2022-11-17T00:48:00.123Z,98747.82
2022-11-17T00:50:27.493Z,98748.28
2022-11-17T00:52:55.687Z,98739.38
2022-11-17T00:55:23.865Z,98736.72
2022-11-17T00:57:52.327Z,98733.52
2022-11-17T01:00:20.996Z,98731.27
2022-11-17T01:02:48.642Z,98726.84
2022-11-17T01:05:17.700Z,98717.21
2022-11-17T01:07:46.744Z,98721.16
2022-11-17T01:10:15.336Z,98711.09
2022-11-17T01:12:43.158Z,98704.66
2022-11-17T01:15:20.228Z,98711.97
2022-11-17T01:17:48.836Z,98714.53
2022-11-17T01:20:17.735Z,98712.17
2022-11-17T01:22:45.919Z,98705.92
2022-11-17T01:25:14.300Z,98704.02
2022-11-17T01:27:42.370Z,98711.89
2022-11-17T01:30:11.303Z,98711.96
2022-11-17T01:32:42.702Z,98704.81
2022-11-17T01:35:10.566Z,98691.50
2022-11-17T01:37:38.069Z,98692.76
2022-11-17T01:40:06.240Z,98683.85
2022-11-17T01:42:33.426Z,98691.02
2022-11-17T01:45:05.657Z,98687.25
2022-11-17T01:47:47.032Z,98681.52
2022-11-17T01:50:24.643Z,98670.40
2022-11-17T01:52:57.024Z,98663.36
2022-11-17T01:55:58.817Z,98672.49
2022-11-17T01:58:32.497Z,98666.73
2022-11-17T02:01:00.159Z,98656.77
2022-11-17T02:03:29.967Z,98651.02
2022-11-17T02:06:38.082Z,98647.36
2022-11-17T02:09:05.483Z,98652.77
2022-11-17T02:11:35.612Z,98652.97
2022-11-17T02:14:04.968Z,98652.81
2022-11-17T02:16:32.828Z,98645.34
2022-11-17T02:19:00.395Z,98637.50
2022-11-17T02:22:08.860Z,98628.28
2022-11-17T02:25:07.170Z,98619.73
2022-11-17T02:28:00.044Z,98621.08
2022-11-17T02:30:36.865Z,98618.15
2022-11-17T02:33:16.353Z,98613.00
2022-11-17T02:35:47.773Z,98610.98
2022-11-17T02:38:56.159Z,98600.27
2022-11-17T02:41:34.677Z,98605.66
2022-11-17T02:44:12.920Z,98602.20
2022-11-17T02:47:07.954Z,98602.55
2022-11-17T02:49:38.660Z,98596.80
2022-11-17T02:52:08.052Z,98591.61
2022-11-17T02:54:36.412Z,98587.11
2022-11-17T02:57:03.896Z,98582.58
2022-11-17T02:59:36.400Z,98567.82
2022-11-17T03:02:04.022Z,98568.69
2022-11-17T03:04:39.543Z,98573.01
2022-11-17T03:07:26.542Z,98582.42
2022-11-17T03:10:33.939Z,98581.48
2022-11-17T03:13:16.358Z,98581.91
2022-11-17T03:15:46.611Z,98586.77
2022-11-17T03:18:23.286Z,98588.52
2022-11-17T03:21:08.693Z,98589.88
2022-11-17T03:23:44.628Z,98587.64
2022-11-17T03:26:16.236Z,98582.68
2022-11-17T03:28:46.049Z,98580.56
2022-11-17T03:31:15.068Z,98577.87
2022-11-17T03:33:45.185Z,98584.02
2022-11-17T03:36:15.695Z,98584.84
2022-11-17T03:39:08.268Z,98585.35
2022-11-17T03:41:41.985Z,98582.16
2022-11-17T03:44:09.916Z,98581.98
2022-11-17T03:46:38.547Z,98583.15
2022-11-17T03:49:31.300Z,98581.37
2022-11-17T03:51:59.673Z,98574.57
2022-11-17T03:54:26.949Z,98571.38
2022-11-17T03:57:26.181Z,98576.73
2022-11-17T03:59:59.043Z,98561.35
2022-11-17T04:02:26.606Z,98551.39
2022-11-17T04:05:05.951Z,98557.52
2022-11-17T04:07:42.235Z,98557.90
2022-11-17T04:10:14.765Z,98557.68
2022-11-17T04:13:00.819Z,98557.65
2022-11-17T04:15:47.123Z,98564.93
2022-11-17T04:18:14.051Z,98564.25
2022-11-17T04:20:41.759Z,98557.24
2022-11-17T04:23:13.643Z,98555.69
2022-11-17T04:26:05.402Z,98558.50
2022-11-17T04:28:37.596Z,98562.88
2022-11-17T04:31:29.148Z,98561.25
2022-11-17T04:34:02.695Z,98566.16
2022-11-17T04:36:34.464Z,98565.96
2022-11-17T04:39:03.564Z,98560.14
2022-11-17T04:41:49.472Z,98556.48
2022-11-17T04:44:19.330Z,98551.34
2022-11-17T04:46:47.496Z,98542.33
2022-11-17T04:49:23.531Z,98539.95
2022-11-17T04:51:54.512Z,98512.38
2022-11-17T04:54:26.924Z,98515.83
2022-11-17T04:56:56.127Z,98516.48
2022-11-17T04:59:24.345Z,98523.61
2022-11-17T05:02:01.078Z,98529.52
2022-11-17T05:04:50.106Z,98528.29
2022-11-17T05:07:17.365Z,98526.58
2022-11-17T05:13:18.092Z,98522.02
2022-11-17T05:16:04.954Z,98513.65
2022-11-17T05:18:35.644Z,98514.96
2022-11-17T05:21:08.687Z,98515.39
2022-11-17T05:23:57.238Z,98509.33
2022-11-17T05:29:53.799Z,98514.65
2022-11-17T05:32:21.343Z,98514.34
2022-11-17T05:34:48.691Z,98513.23
2022-11-17T05:37:16.855Z,98517.67
2022-11-17T05:39:44.692Z,98506.80
2022-11-17T05:45:00.574Z,98506.91
2022-11-17T05:47:29.015Z,98520.05
2022-11-17T05:49:56.449Z,98529.02
2022-11-17T05:56:44.066Z,98535.06
2022-11-17T05:59:39.363Z,98546.64
2022-11-17T06:02:25.533Z,98559.70
2022-11-17T06:04:59.801Z,98559.96
2022-11-17T06:07:28.747Z,98551.40
2022-11-17T06:09:57.212Z,98573.63
2022-11-17T06:12:25.277Z,98573.34
2022-11-17T06:14:54.058Z,98577.08
2022-11-17T06:17:55.075Z,98581.85
2022-11-17T06:24:24.295Z,98601.26
2022-11-17T06:26:53.559Z,98611.75
2022-11-17T06:29:21.680Z,98605.86
2022-11-17T06:31:49.776Z,98619.88
2022-11-17T06:34:17.331Z,98631.35
2022-11-17T06:36:47.864Z,98641.39
2022-11-17T06:39:16.062Z,98641.36
2022-11-17T06:41:46.709Z,98647.11
2022-11-17T06:47:06.880Z,98636.30
2022-11-17T06:49:34.873Z,98629.61
2022-11-17T06:52:04.382Z,98635.79
2022-11-17T06:54:33.003Z,98631.61
2022-11-17T06:57:01.314Z,98636.41
2022-11-17T06:59:30.371Z,98624.55
2022-11-17T07:02:00.780Z,98632.27
2022-11-17T07:04:31.333Z,98628.92
2022-11-17T07:06:59.937Z,98620.04
2022-11-17T07:09:27.723Z,98605.27
2022-11-17T07:11:59.053Z,98613.52
2022-11-17T07:14:28.660Z,98609.44
2022-11-17T07:16:56.803Z,98605.92
2022-11-17T07:19:24.851Z,98610.39
2022-11-17T07:21:53.307Z,98609.61
2022-11-17T07:24:21.670Z,98609.42
2022-11-17T07:26:49.638Z,98604.20
2022-11-17T07:29:19.070Z,98598.47
2022-11-17T07:35:31.075Z,98609.02
2022-11-17T07:39:53.788Z,98610.05
2022-11-17T07:42:22.565Z,98604.84
2022-11-17T07:44:55.669Z,98599.92
2022-11-17T07:47:27.783Z,98619.17
2022-11-17T07:49:55.735Z,98618.92
2022-11-17T07:52:27.351Z,98616.17
2022-11-17T07:54:55.593Z,98617.30
2022-11-17T07:57:43.153Z,98615.45
2022-11-17T08:00:13.229Z,98614.98
2022-11-17T08:02:42.065Z,98611.69
2022-11-17T08:05:09.835Z,98599.53
2022-11-17T08:07:37.532Z,98601.52
2022-11-17T08:10:06.283Z,98612.62
2022-11-17T08:12:34.222Z,98612.94
2022-11-17T08:15:02.323Z,98609.79
2022-11-17T08:17:31.994Z,98614.19
2022-11-17T08:19:59.806Z,98619.24
2022-11-17T08:22:29.558Z,98616.93
2022-11-17T08:24:59.903Z,98613.13
2022-11-17T08:27:28.464Z,98617.49
2022-11-17T08:29:58.819Z,98624.15
2022-11-17T08:32:31.634Z,98633.63
2022-11-17T08:35:06.845Z,98629.99
2022-11-17T08:37:42.830Z,98623.83
2022-11-17T08:40:13.440Z,98618.84
2022-11-17T08:42:42.062Z,98616.29
2022-11-17T08:45:14.235Z,98614.33
2022-11-17T08:47:45.308Z,98615.44
2022-11-17T08:50:14.172Z,98612.13
2022-11-17T08:52:49.820Z,98625.31
2022-11-17T08:55:19.580Z,98633.41
2022-11-17T08:57:51.609Z,98623.63
2022-11-17T09:00:21.654Z,98616.48
2022-11-17T09:02:49.732Z,98635.42
2022-11-17T09:05:17.811Z,98639.24
2022-11-17T09:07:46.075Z,98639.27
2022-11-17T09:10:14.212Z,98645.80
2022-11-17T09:12:42.082Z,98648.27
2022-11-17T09:15:11.085Z,98643.91
2022-11-17T09:17:40.160Z,98630.05
2022-11-17T09:20:08.604Z,98622.80
2022-11-17T09:22:36.539Z,98613.31
2022-11-17T09:25:11.890Z,98617.19
2022-11-17T09:27:41.389Z,98615.20
2022-11-17T09:30:11.533Z,98620.65
2022-11-17T09:32:39.675Z,98625.98
2022-11-17T09:35:09.260Z,98617.29
2022-11-17T09:37:37.477Z,98610.81
2022-11-17T09:40:10.519Z,98612.08
2022-11-17T09:42:42.418Z,98617.62
2022-11-17T09:45:23.350Z,98618.69
2022-11-17T09:48:12.479Z,98614.70
2022-11-17T09:50:47.708Z,98610.45
2022-11-17T09:53:29.768Z,98600.73
2022-11-17T09:56:02.511Z,98606.04
2022-11-17T09:58:43.646Z,98606.52
2022-11-17T10:01:17.815Z,98607.91
2022-11-17T10:04:08.879Z,98607.38
2022-11-17T10:06:51.144Z,98614.04
2022-11-17T10:09:42.576Z,98613.84
2022-11-17T10:12:20.076Z,98612.82
2022-11-17T10:14:49.399Z,98611.53
2022-11-17T10:17:42.376Z,98618.64
2022-11-17T10:20:18.481Z,98605.84
2022-11-17T10:22:47.731Z,98614.83
2022-11-17T10:25:57.800Z,98621.61
2022-11-17T10:28:31.353Z,98627.13
2022-11-17T10:31:10.393Z,98628.67
2022-11-17T10:33:44.806Z,98622.80
2022-11-17T10:36:31.704Z,98617.46
2022-11-17T10:39:01.318Z,98614.98
2022-11-17T10:41:50.370Z,98621.05
2022-11-17T10:44:24.788Z,98616.60
2022-11-17T10:47:02.345Z,98616.40
2022-11-17T10:49:34.585Z,98604.94
2022-11-17T10:52:13.517Z,98589.52
2022-11-17T10:54:42.105Z,98599.36
2022-11-17T10:57:21.748Z,98595.97
2022-11-17T10:59:56.748Z,98595.98
2022-11-17T11:02:36.985Z,98600.63
2022-11-17T11:05:25.982Z,98596.40
2022-11-17T11:08:30.201Z,98589.80
2022-11-17T11:11:36.222Z,98590.09
2022-11-17T11:14:27.825Z,98601.86
2022-11-17T11:16:56.168Z,98592.80
2022-11-17T11:19:38.095Z,98593.33
2022-11-17T11:22:30.374Z,98602.78
2022-11-17T11:25:03.707Z,98611.14
2022-11-17T11:27:56.403Z,98616.69
2022-11-17T11:30:41.114Z,98613.36
2022-11-17T11:33:23.235Z,98612.27
2022-11-17T11:36:25.821Z,98615.21
2022-11-17T11:39:21.318Z,98620.98
2022-11-17T11:42:08.303Z,98616.66
2022-11-17T11:44:58.351Z,98606.67
2022-11-17T11:47:45.471Z,98611.81
2022-11-17T11:50:21.984Z,98603.45
2022-11-17T11:52:57.430Z,98615.72
2022-11-17T11:55:31.474Z,98616.20
2022-11-17T11:58:20.594Z,98613.48
2022-11-17T12:00:52.096Z,98623.61
2022-11-17T12:03:42.435Z,98622.01
2022-11-17T12:06:42.457Z,98625.44
2022-11-17T12:09:24.762Z,98616.15
2022-11-17T12:12:02.790Z,98624.84
2022-11-17T12:14:33.573Z,98627.25
2022-11-17T12:17:13.670Z,98632.70
2022-11-17T12:19:44.562Z,98630.23
2022-11-17T12:22:31.954Z,98627.21
2022-11-17T12:25:00.071Z,98638.00
2022-11-17T12:27:34.712Z,98636.02
2022-11-17T12:30:25.364Z,98635.73
2022-11-17T12:32:53.939Z,98635.82
2022-11-17T12:35:41.271Z,98622.31
2022-11-17T12:38:17.799Z,98634.62
2022-11-17T12:40:49.861Z,98648.80
2022-11-17T12:43:25.830Z,98646.38
2022-11-17T12:45:59.620Z,98646.05
2022-11-17T12:48:39.185Z,98649.26
2022-11-17T12:51:34.947Z,98655.48
2022-11-17T12:54:27.601Z,98655.05
2022-11-17T12:57:05.318Z,98661.75
2022-11-17T12:59:44.614Z,98651.33
2022-11-17T13:02:18.384Z,98648.55
2022-11-17T13:04:57.638Z,98658.12
2022-11-17T13:07:26.446Z,98657.95
2022-11-17T13:09:59.758Z,98666.69
2022-11-17T13:12:33.240Z,98668.72
2022-11-17T13:15:04.133Z,98673.63
2022-11-17T13:17:34.483Z,98687.19
2022-11-17T13:20:22.895Z,98689.60
2022-11-17T13:23:20.134Z,98687.70
2022-11-17T13:25:49.140Z,98697.97
2022-11-17T13:28:31.518Z,98706.08
2022-11-17T13:31:00.847Z,98719.24
2022-11-17T13:33:38.407Z,98712.86
2022-11-17T13:36:19.354Z,98719.96
2022-11-17T13:38:53.004Z,98706.85
2022-11-17T13:41:24.408Z,98726.23
2022-11-17T13:43:55.114Z,98730.20
2022-11-17T13:46:23.638Z,98734.46
2022-11-17T13:48:51.639Z,98727.10
2022-11-17T13:51:42.045Z,98710.48
2022-11-17T13:54:13.319Z,98727.38
2022-11-17T13:56:49.037Z,98726.98
2022-11-17T13:59:28.715Z,98727.46
2022-11-17T14:02:14.930Z,98734.52
2022-11-17T14:05:14.647Z,98734.21
2022-11-17T14:07:43.807Z,98738.94
2022-11-17T14:10:20.961Z,98738.39
2022-11-17T14:12:50.740Z,98739.31
2022-11-17T14:15:22.580Z,98744.00
2022-11-17T14:17:59.669Z,98744.92
2022-11-17T14:20:32.635Z,98742.35
2022-11-17T14:23:13.267Z,98747.83
2022-11-17T14:25:56.015Z,98744.00
2022-11-17T14:28:26.397Z,98749.33
2022-11-17T14:30:56.281Z,98743.91
2022-11-17T14:33:46.205Z,98760.95
2022-11-17T14:36:16.623Z,98764.84
2022-11-17T14:38:46.471Z,98771.12
2022-11-17T14:41:22.902Z,98775.40
2022-11-17T14:43:56.121Z,98771.55
2022-11-17T14:46:26.135Z,98775.52
2022-11-17T14:48:55.355Z,98773.52
2022-11-17T14:51:23.394Z,98775.11
2022-11-17T14:53:52.743Z,98774.97
2022-11-17T14:56:25.753Z,98770.65
2022-11-17T14:58:59.755Z,98770.70
2022-11-17T15:01:31.856Z,98774.89
2022-11-17T15:04:20.815Z,98776.17
2022-11-17T15:06:51.633Z,98779.47
2022-11-17T15:09:20.070Z,98786.73
2022-11-17T15:11:48.551Z,98789.55
2022-11-17T15:14:22.265Z,98789.98
2022-11-17T15:16:53.562Z,98793.23
2022-11-17T15:19:22.704Z,98790.20
2022-11-17T15:21:50.677Z,98790.58
2022-11-17T15:24:18.562Z,98791.02
2022-11-17T15:26:48.989Z,98793.31
2022-11-17T15:29:18.984Z,98797.57
2022-11-17T15:31:46.505Z,98802.28
2022-11-17T15:34:19.976Z,98800.62
2022-11-17T15:36:49.362Z,98805.23
2022-11-17T15:39:18.770Z,98800.21
2022-11-17T15:41:48.375Z,98799.89
2022-11-17T15:44:18.358Z,98800.30
2022-11-17T15:46:47.827Z,98796.91
2022-11-17T15:49:15.995Z,98804.98
2022-11-17T15:51:43.973Z,98813.73
2022-11-17T15:54:19.715Z,98817.77
2022-11-17T15:57:26.500Z,98828.45
2022-11-17T15:59:56.728Z,98836.66
2022-11-17T16:02:28.228Z,98838.46
2022-11-17T16:05:02.582Z,98838.02
2022-11-17T16:07:31.081Z,98836.15
2022-11-17T16:10:08.389Z,98842.43
2022-11-17T16:12:41.143Z,98847.34
2022-11-17T16:15:10.080Z,98851.55
2022-11-17T16:17:37.324Z,98848.62
2022-11-17T16:20:05.907Z,98844.98
2022-11-17T16:22:34.627Z,98840.13
2022-11-17T16:25:02.095Z,98844.67
2022-11-17T16:27:32.710Z,98847.23
2022-11-17T16:30:02.558Z,98844.09
2022-11-17T16:32:35.404Z,98842.52
2022-11-17T16:35:03.979Z,98840.11
2022-11-17T16:37:32.266Z,98845.46
2022-11-17T16:40:01.897Z,98847.56
2022-11-17T16:42:29.759Z,98853.46
2022-11-17T16:44:57.750Z,98857.27
2022-11-17T16:47:42.963Z,98860.59
2022-11-17T16:50:11.014Z,98861.63
2022-11-17T16:53:17.396Z,98865.45
2022-11-17T16:55:45.140Z,98865.30
2022-11-17T16:58:12.887Z,98867.57
2022-11-17T17:00:39.978Z,98872.09
2022-11-17T17:03:07.419Z,98873.70
2022-11-17T17:05:40.140Z,98874.05
2022-11-17T17:08:08.026Z,98872.86
2022-11-17T17:10:36.112Z,98874.09
2022-11-17T17:13:03.900Z,98870.11
2022-11-17T17:15:33.819Z,98869.59
2022-11-17T17:18:02.964Z,98873.95
2022-11-17T17:20:31.034Z,98870.15
2022-11-17T17:23:02.903Z,98874.68
2022-11-17T17:25:30.427Z,98881.46
2022-11-17T17:27:57.743Z,98878.01
2022-11-17T17:30:25.200Z,98880.96
2022-11-17T17:32:56.235Z,98882.20
2022-11-17T17:35:23.545Z,98881.69
2022-11-17T17:37:50.949Z,98883.42
2022-11-17T17:40:18.205Z,98888.12
2022-11-17T17:42:45.576Z,98894.72
2022-11-17T17:45:16.793Z,98899.58
2022-11-17T17:47:44.416Z,98903.76
2022-11-17T17:50:15.015Z,98908.45
2022-11-17T17:52:42.147Z,98912.10
2022-11-17T17:55:09.381Z,98913.33
2022-11-17T17:57:40.238Z,98917.34
2022-11-17T18:00:08.129Z,98917.70
2022-11-17T18:02:35.990Z,98916.33
2022-11-17T18:05:06.179Z,98920.68
2022-11-17T18:07:33.639Z,98919.65
2022-11-17T18:10:01.170Z,98925.91
2022-11-17T18:12:28.710Z,98930.95
2022-11-17T18:14:56.225Z,98920.73
2022-11-17T18:17:24.016Z,98933.77
2022-11-17T18:19:51.801Z,98932.56
2022-11-17T18:22:19.036Z,98936.20
2022-11-17T18:24:46.232Z,98930.16
2022-11-17T18:27:13.765Z,98917.17
2022-11-17T18:29:40.681Z,98936.95
2022-11-17T18:32:08.447Z,98935.90
2022-11-17T18:34:36.260Z,98936.77
2022-11-17T18:37:06.207Z,98937.13
2022-11-17T18:39:34.286Z,98944.25
2022-11-17T18:42:08.271Z,98943.20
2022-11-17T18:44:36.219Z,98945.98
2022-11-17T18:47:04.223Z,98947.89
2022-11-17T18:49:32.184Z,98945.98
2022-11-17T18:52:00.097Z,98949.79
2022-11-17T18:54:27.828Z,98945.46
2022-11-17T18:56:56.077Z,98943.55
2022-11-17T19:02:08.310Z,98934.36
2022-11-17T19:04:35.976Z,98934.71
2022-11-17T19:07:03.849Z,98935.05
2022-11-17T19:09:33.755Z,98934.89
2022-11-17T19:12:02.408Z,98931.41
2022-11-17T19:14:30.170Z,98936.10
2022-11-17T19:16:57.910Z,98942.17
2022-11-17T19:19:30.080Z,98946.32
2022-11-17T19:21:57.870Z,98958.64
2022-11-17T19:24:26.324Z,98965.73
2022-11-17T19:26:56.951Z,98966.09
2022-11-17T19:29:39.975Z,98967.45
2022-11-17T19:32:07.958Z,98950.80
2022-11-17T19:34:35.833Z,98961.39
2022-11-17T19:37:03.176Z,98963.66
2022-11-17T19:39:30.578Z,98952.55
2022-11-17T19:41:58.402Z,98951.70
2022-11-17T19:44:27.781Z,98956.33
2022-11-17T19:46:55.966Z,98954.94
2022-11-17T19:49:23.778Z,98938.66
2022-11-17T19:51:51.608Z,98949.04
2022-11-17T19:54:19.411Z,98934.13
2022-11-17T19:56:47.162Z,98939.51
2022-11-17T19:59:16.709Z,98942.63
2022-11-17T20:01:45.588Z,98944.88
2022-11-17T20:04:14.800Z,98943.30
2022-11-17T20:06:43.342Z,98945.92
2022-11-17T20:09:15.377Z,98940.17
2022-11-17T20:11:43.657Z,98947.81
2022-11-17T20:14:11.450Z,98939.99
2022-11-17T20:16:39.797Z,98955.41
2022-11-17T20:19:09.257Z,98950.36
2022-11-17T20:21:36.764Z,98952.41
2022-11-17T20:24:04.958Z,98936.80
2022-11-17T20:26:39.944Z,98948.92
2022-11-17T20:29:07.839Z,98953.25
2022-11-17T20:31:36.617Z,98957.05
2022-11-17T20:34:05.654Z,98957.92
2022-11-17T20:36:34.939Z,98956.89
2022-11-17T20:39:05.753Z,98958.27
2022-11-17T20:41:34.813Z,98954.81
2022-11-17T20:44:23.937Z,98952.22
2022-11-17T20:46:55.681Z,98957.05
2022-11-17T20:49:24.239Z,98959.13
2022-11-17T20:51:51.937Z,98965.35
2022-11-17T20:54:25.062Z,98965.00
2022-11-17T20:56:52.499Z,98956.50
2022-11-17T20:59:20.660Z,98952.52
2022-11-17T21:01:51.790Z,98956.33
2022-11-17T21:04:32.103Z,98953.17
2022-11-17T21:07:00.861Z,98944.31
2022-11-17T21:09:28.018Z,98955.23
2022-11-17T21:11:58.210Z,98957.98
2022-11-17T21:14:26.880Z,98959.17
2022-11-17T21:16:57.078Z,98960.71
2022-11-17T21:19:24.792Z,98959.12
2022-11-17T21:21:53.174Z,98964.29
2022-11-17T21:24:21.583Z,98963.73
2022-11-17T21:26:54.291Z,98965.61
2022-11-17T21:29:21.980Z,98956.95
2022-11-17T21:31:50.493Z,98961.28
2022-11-17T21:34:18.048Z,98962.67
2022-11-17T21:36:45.830Z,98969.41
2022-11-17T21:39:17.926Z,98972.52
2022-11-17T21:41:45.873Z,98961.26
2022-11-17T21:44:13.841Z,98974.95
2022-11-17T21:46:44.284Z,98977.20
2022-11-17T21:49:11.352Z,98980.66
2022-11-17T21:51:38.775Z,98985.33
2022-11-17T21:54:09.743Z,98986.88
2022-11-17T21:56:37.457Z,98981.48
2022-11-17T21:59:13.201Z,98980.96
2022-11-17T22:01:40.678Z,98988.54
2022-11-17T22:04:09.899Z,98990.95
2022-11-17T22:06:38.609Z,98999.58
2022-11-17T22:09:06.621Z,98999.72
2022-11-17T22:11:35.257Z,99001.05
2022-11-17T22:14:18.803Z,99009.69
2022-11-17T22:16:49.762Z,98999.39
2022-11-17T22:19:20.104Z,99017.92
2022-11-17T22:21:52.707Z,99015.80
2022-11-17T22:24:21.058Z,99021.33
2022-11-17T22:26:51.249Z,99020.29
2022-11-17T22:29:21.532Z,99005.17
2022-11-17T22:31:50.470Z,99025.46
2022-11-17T22:34:22.097Z,99024.06
2022-11-17T22:36:50.479Z,99024.75
2022-11-17T22:39:19.084Z,99020.89
2022-11-17T22:42:39.245Z,99026.62
2022-11-17T22:45:07.820Z,99016.91
2022-11-17T22:47:36.143Z,99025.23
2022-11-17T22:50:06.998Z,99022.25
2022-11-17T22:52:35.856Z,99015.84
2022-11-17T22:55:04.807Z,98990.12
2022-11-17T22:57:33.219Z,99010.92
2022-11-17T23:00:02.536Z,99008.13
2022-11-17T23:02:30.694Z,99002.19
2022-11-17T23:04:59.142Z,99000.04
2022-11-17T23:07:27.469Z,99002.55
2022-11-17T23:09:55.510Z,99003.54
2022-11-17T23:12:23.570Z,99007.83
2022-11-17T23:14:51.359Z,99002.96
2022-11-17T23:17:21.088Z,98995.63
2022-11-17T23:19:49.992Z,99010.20
2022-11-17T23:22:18.513Z,99003.77
2022-11-17T23:24:46.293Z,98999.22
2022-11-17T23:27:14.479Z,98993.42
2022-11-17T23:29:42.840Z,98999.31
2022-11-17T23:32:11.164Z,98992.11
2022-11-17T23:34:39.704Z,98997.38
2022-11-17T23:37:08.004Z,98995.01
2022-11-17T23:39:35.660Z,98993.60
2022-11-17T23:42:03.621Z,98995.70
2022-11-17T23:44:31.606Z,98998.12
2022-11-17T23:47:02.418Z,98997.80
2022-11-17T23:49:31.019Z,98987.25
2022-11-17T23:51:59.483Z,99002.83
2022-11-17T23:54:27.220Z,99003.64
2022-11-17T23:56:57.205Z,98997.40
2022-11-17T23:59:24.356Z,99001.33
